createdAt,value
2017-03-04T00:00:04.784Z,1002.9
2017-03-04T00:01:07.300Z,1002.8
2017-03-04T00:02:09.809Z,1002.8
2017-03-04T00:03:12.309Z,1002.8
2017-03-04T00:04:14.859Z,1002.8
2017-03-04T00:05:18.168Z,1002.8
2017-03-04T00:06:20.187Z,1002.9
2017-03-04T00:07:22.724Z,1002.8
2017-03-04T00:08:25.263Z,1002.8
2017-03-04T00:09:28.283Z,1002.8
2017-03-04T00:10:31.042Z,1002.8
2017-03-04T00:11:33.039Z,1002.9
2017-03-04T00:12:35.887Z,1002.8
2017-03-04T00:14:41.294Z,1002.8
2017-03-04T00:15:44.131Z,1002.8
2017-03-04T00:16:46.150Z,1002.7
2017-03-04T00:17:48.664Z,1002.8
2017-03-04T00:18:51.727Z,1002.8
2017-03-04T00:19:54.242Z,1002.8
2017-03-04T00:20:57.098Z,1002.8
2017-03-04T00:21:59.121Z,1002.8
2017-03-04T00:23:02.137Z,1002.8
2017-03-04T00:24:04.640Z,1002.8
2017-03-04T00:25:07.146Z,1002.8
2017-03-04T00:26:09.920Z,1002.8
2017-03-04T00:27:12.279Z,1002.7
2017-03-04T00:28:14.793Z,1002.8
2017-03-04T00:29:17.803Z,1002.7
2017-03-04T00:30:20.316Z,1002.7
2017-03-04T00:31:22.922Z,1002.7
2017-03-04T00:32:25.429Z,1002.7
2017-03-04T00:33:27.955Z,1002.7
2017-03-04T00:34:30.487Z,1002.7
2017-03-04T00:35:33.051Z,1002.7
2017-03-04T00:36:35.823Z,1002.7
2017-03-04T00:37:38.324Z,1002.6
2017-03-04T00:38:40.851Z,1002.6
2017-03-04T00:39:43.375Z,1002.6
2017-03-04T00:41:49.087Z,1002.6
2017-03-04T00:42:51.584Z,1002.6
2017-03-04T00:43:54.097Z,1002.6
2017-03-04T00:44:56.604Z,1002.6
2017-03-04T00:45:59.124Z,1002.5
2017-03-04T00:47:02.051Z,1002.6
2017-03-04T00:48:04.564Z,1002.5
2017-03-04T00:49:07.073Z,1002.5
2017-03-04T00:50:09.590Z,1002.5
2017-03-04T00:51:12.118Z,1002.5
2017-03-04T00:52:15.388Z,1002.5
2017-03-04T00:53:17.404Z,1002.4
2017-03-04T00:54:19.922Z,1002.4
2017-03-04T00:55:22.928Z,1002.4
2017-03-04T00:56:25.445Z,1002.4
2017-03-04T00:57:28.260Z,1002.4
2017-03-04T00:58:30.290Z,1002.4
2017-03-04T00:59:33.312Z,1002.4
2017-03-04T01:00:35.814Z,1002.3
2017-03-04T01:01:38.331Z,1002.3
2017-03-04T01:02:41.469Z,1002.3
2017-03-04T01:03:43.473Z,1002.3
2017-03-04T01:04:45.972Z,1002.3
2017-03-04T01:05:48.980Z,1002.2
2017-03-04T01:06:51.487Z,1002.2
2017-03-04T01:07:54.093Z,1002.2
2017-03-04T01:08:56.600Z,1002.2
2017-03-04T01:09:59.102Z,1002.3
2017-03-04T01:11:01.955Z,1002.2
2017-03-04T01:12:04.462Z,1002.2
2017-03-04T01:13:07.228Z,1002.2
2017-03-04T01:14:09.776Z,1002.2
2017-03-04T01:15:12.274Z,1002.2
2017-03-04T01:16:14.784Z,1002.2
2017-03-04T01:17:17.295Z,1002.1
2017-03-04T01:18:20.065Z,1002.1
2017-03-04T01:19:22.408Z,1002.1
2017-03-04T01:20:25.482Z,1002.1
2017-03-04T01:21:28.000Z,1002
2017-03-04T01:22:30.511Z,1002.1
2017-03-04T01:23:33.337Z,1002.1
2017-03-04T01:24:35.853Z,1002
2017-03-04T01:25:38.367Z,1002
2017-03-04T01:26:40.878Z,1002
2017-03-04T01:27:43.383Z,1001.9
2017-03-04T01:28:46.197Z,1001.8
2017-03-04T01:29:48.718Z,1001.9
2017-03-04T01:30:51.258Z,1001.8
2017-03-04T01:31:54.141Z,1001.8
2017-03-04T01:32:56.657Z,1001.8
2017-03-04T01:33:59.454Z,1001.8
2017-03-04T01:35:01.523Z,1001.8
2017-03-04T01:36:04.364Z,1001.8
2017-03-04T01:37:06.870Z,1001.7
2017-03-04T01:38:09.385Z,1001.6
2017-03-04T01:39:12.638Z,1001.7
2017-03-04T01:40:14.703Z,1001.7
2017-03-04T01:41:17.205Z,1001.6
2017-03-04T01:42:19.716Z,1001.6
2017-03-04T01:43:22.726Z,1001.6
2017-03-04T01:44:25.530Z,1001.6
2017-03-04T01:45:27.535Z,1001.6
2017-03-04T01:46:30.396Z,1001.6
2017-03-04T01:47:32.899Z,1001.6
2017-03-04T01:49:38.393Z,1001.5
2017-03-04T01:50:40.898Z,1001.5
2017-03-04T01:51:43.318Z,1001.5
2017-03-04T01:52:45.817Z,1001.5
2017-03-04T01:53:48.839Z,1001.5
2017-03-04T01:54:51.605Z,1001.5
2017-03-04T01:55:53.600Z,1001.5
2017-03-04T01:56:56.628Z,1001.4
2017-03-04T01:57:59.136Z,1001.4
2017-03-04T01:59:01.636Z,1001.4
2017-03-04T02:00:04.460Z,1001.4
2017-03-04T02:01:06.990Z,1001.4
2017-03-04T02:02:09.496Z,1001.4
2017-03-04T02:03:12.009Z,1001.4
2017-03-04T02:04:14.504Z,1001.4
2017-03-04T02:05:17.309Z,1001.3
2017-03-04T02:06:19.833Z,1001.3
2017-03-04T02:07:22.354Z,1001.4
2017-03-04T02:08:24.856Z,1001.3
2017-03-04T02:09:27.864Z,1001.3
2017-03-04T02:10:30.463Z,1001.3
2017-03-04T02:11:32.970Z,1001.3
2017-03-04T02:12:35.476Z,1001.3
2017-03-04T02:13:37.978Z,1001.3
2017-03-04T02:14:40.473Z,1001.3
2017-03-04T02:15:43.746Z,1001.2
2017-03-04T02:16:45.747Z,1001.2
2017-03-04T02:17:48.246Z,1001.2
2017-03-04T02:18:51.085Z,1001.2
2017-03-04T02:19:53.588Z,1001.2
2017-03-04T02:20:56.388Z,1001.2
2017-03-04T02:21:58.890Z,1001.2
2017-03-04T02:23:01.224Z,1001.2
2017-03-04T02:24:04.266Z,1001.2
2017-03-04T02:25:06.766Z,1001.2
2017-03-04T02:26:09.423Z,1001.2
2017-03-04T02:27:11.949Z,1001.2
2017-03-04T02:28:14.527Z,1001.1
2017-03-04T02:29:17.050Z,1001.2
2017-03-04T02:30:19.568Z,1001.2
2017-03-04T02:31:22.338Z,1001.1
2017-03-04T02:32:24.838Z,1001.1
2017-03-04T02:33:27.360Z,1001.1
2017-03-04T02:34:29.872Z,1001.1
2017-03-04T02:35:32.889Z,1001.1
2017-03-04T02:36:35.651Z,1001
2017-03-04T02:37:37.713Z,1001
2017-03-04T02:39:43.136Z,1001
2017-03-04T02:40:45.681Z,1001.1
2017-03-04T02:41:48.502Z,1001
2017-03-04T02:42:51.015Z,1001
2017-03-04T02:43:53.522Z,1001
2017-03-04T02:44:56.029Z,1001
2017-03-04T02:45:58.530Z,1001.1
2017-03-04T02:47:01.784Z,1001.1
2017-03-04T02:48:03.793Z,1001
2017-03-04T02:49:06.314Z,1000.9
2017-03-04T02:50:09.332Z,1001
2017-03-04T02:51:11.878Z,1001
2017-03-04T02:53:17.101Z,1001
2017-03-04T02:54:19.611Z,1000.9
2017-03-04T02:55:21.944Z,1000.9
2017-03-04T02:56:24.442Z,1001
2017-03-04T02:57:27.299Z,1000.9
2017-03-04T02:58:30.303Z,1000.9
2017-03-04T02:59:40.899Z,1000.9
2017-03-04T03:00:34.854Z,1000.8
2017-03-04T03:01:37.859Z,1000.9
2017-03-04T03:02:40.195Z,1000.9
2017-03-04T03:03:43.058Z,1000.9
2017-03-04T03:04:45.571Z,1000.8
2017-03-04T03:05:48.086Z,1000.8
2017-03-04T03:06:50.600Z,1000.8
2017-03-04T03:07:53.116Z,1000.8
2017-03-04T03:08:55.931Z,1000.8
2017-03-04T03:09:58.434Z,1000.8
2017-03-04T03:11:01.016Z,1000.8
2017-03-04T03:12:03.531Z,1000.8
2017-03-04T03:13:06.048Z,1000.9
2017-03-04T03:14:09.369Z,1000.9
2017-03-04T03:15:11.443Z,1000.9
2017-03-04T03:16:13.949Z,1000.9
2017-03-04T03:17:16.486Z,1000.9
2017-03-04T03:18:19.051Z,1000.9
2017-03-04T03:19:22.382Z,1000.9
2017-03-04T03:20:24.381Z,1000.9
2017-03-04T03:21:26.896Z,1000.9
2017-03-04T03:22:29.396Z,1000.9
2017-03-04T03:23:32.399Z,1000.8
2017-03-04T03:24:35.220Z,1000.9
2017-03-04T03:25:37.234Z,1000.8
2017-03-04T03:26:40.264Z,1000.8
2017-03-04T03:27:42.774Z,1000.8
2017-03-04T03:28:45.284Z,1000.9
2017-03-04T03:29:48.089Z,1000.9
2017-03-04T03:30:50.434Z,1000.9
2017-03-04T03:31:52.884Z,1000.8
2017-03-04T03:32:55.849Z,1000.8
2017-03-04T03:33:58.311Z,1000.8
2017-03-04T03:35:01.009Z,1000.9
2017-03-04T03:36:03.461Z,1000.8
2017-03-04T03:37:05.907Z,1000.8
2017-03-04T03:38:08.353Z,1000.8
2017-03-04T03:39:11.335Z,1000.8
2017-03-04T03:40:13.900Z,1000.8
2017-03-04T03:41:16.362Z,1000.8
2017-03-04T03:42:18.804Z,1000.8
2017-03-04T03:43:21.778Z,1000.8
2017-03-04T03:44:24.259Z,1000.7
2017-03-04T03:45:26.957Z,1000.7
2017-03-04T03:46:29.235Z,1000.7
2017-03-04T03:47:32.183Z,1000.8
2017-03-04T03:48:34.627Z,1000.8
2017-03-04T03:49:37.408Z,1000.7
2017-03-04T03:50:40.106Z,1000.7
2017-03-04T03:51:42.552Z,1000.7
2017-03-04T03:52:44.999Z,1000.7
2017-03-04T03:53:47.443Z,1000.7
2017-03-04T03:54:49.918Z,1000.8
2017-03-04T03:55:53.186Z,1000.7
2017-03-04T03:56:55.133Z,1000.7
2017-03-04T03:57:58.076Z,1000.8
2017-03-04T03:59:00.526Z,1000.7
2017-03-04T04:01:05.973Z,1000.7
2017-03-04T04:02:08.250Z,1000.7
2017-03-04T04:03:10.710Z,1000.7
2017-03-04T04:04:13.670Z,1000.7
2017-03-04T04:05:16.114Z,1000.7
2017-03-04T04:06:18.813Z,1000.7
2017-03-04T04:07:21.260Z,1000.7
2017-03-04T04:08:23.706Z,1000.7
2017-03-04T04:09:26.651Z,1000.6
2017-03-04T04:10:28.940Z,1000.7
2017-03-04T04:11:32.197Z,1000.7
2017-03-04T04:13:37.047Z,1000.7
2017-03-04T04:14:39.492Z,1000.6
2017-03-04T04:15:41.958Z,1000.7
2017-03-04T04:16:45.164Z,1000.6
2017-03-04T04:17:47.119Z,1000.6
2017-03-04T04:18:50.072Z,1000.5
2017-03-04T04:19:52.530Z,1000.5
2017-03-04T04:20:55.166Z,1000.5
2017-03-04T04:21:57.958Z,1000.5
2017-03-04T04:23:00.419Z,1000.5
2017-03-04T04:24:02.897Z,1000.5
2017-03-04T04:25:05.343Z,1000.5
2017-03-04T04:26:07.798Z,1000.5
2017-03-04T04:27:11.044Z,1000.5
2017-03-04T04:28:12.988Z,1000.5
2017-03-04T04:29:15.936Z,1000.5
2017-03-04T04:30:18.386Z,1000.5
2017-03-04T04:31:20.868Z,1000.5
2017-03-04T04:32:24.081Z,1000.5
2017-03-04T04:33:26.041Z,1000.4
2017-03-04T04:34:29.002Z,1000.5
2017-03-04T04:35:31.452Z,1000.4
2017-03-04T04:36:33.902Z,1000.4
2017-03-04T04:37:36.628Z,1000.3
2017-03-04T04:38:39.091Z,1000.3
2017-03-04T04:39:41.549Z,1000.3
2017-03-04T04:40:44.523Z,1000.3
2017-03-04T04:41:46.972Z,1000.3
2017-03-04T04:42:49.686Z,1000.4
2017-03-04T04:43:52.140Z,1000.4
2017-03-04T04:44:54.583Z,1000.3
2017-03-04T04:45:57.573Z,1000.3
2017-03-04T04:47:00.043Z,1000.3
2017-03-04T04:48:02.962Z,1000.3
2017-03-04T04:49:04.909Z,1000.3
2017-03-04T04:50:07.871Z,1000.3
2017-03-04T04:51:10.325Z,1000.3
2017-03-04T04:52:13.140Z,1000.3
2017-03-04T04:53:15.900Z,1000.3
2017-03-04T04:54:18.344Z,1000.3
2017-03-04T04:55:20.820Z,1000.3
2017-03-04T04:56:23.267Z,1000.3
2017-03-04T04:57:25.720Z,1000.3
2017-03-04T04:58:28.967Z,1000.3
2017-03-04T04:59:30.913Z,1000.3
2017-03-04T05:00:33.888Z,1000.3
2017-03-04T05:01:36.348Z,1000.3
2017-03-04T05:02:38.799Z,1000.3
2017-03-04T05:03:41.504Z,1000.3
2017-03-04T05:04:43.952Z,1000.3
2017-03-04T05:05:46.418Z,1000.3
2017-03-04T05:06:49.367Z,1000.3
2017-03-04T05:08:54.475Z,1000.4
2017-03-04T05:09:56.921Z,1000.3
2017-03-04T05:10:59.375Z,1000.3
2017-03-04T05:13:04.731Z,1000.3
2017-03-04T05:14:07.478Z,1000.2
2017-03-04T05:15:09.925Z,1000.2
2017-03-04T05:16:12.401Z,1000.3
2017-03-04T05:17:15.380Z,1000.3
2017-03-04T05:18:17.868Z,1000.3
2017-03-04T05:19:20.582Z,1000.2
2017-03-04T05:20:23.046Z,1000.2
2017-03-04T05:21:25.496Z,1000.2
2017-03-04T05:22:27.946Z,1000.2
2017-03-04T05:23:30.910Z,1000.2
2017-03-04T05:24:33.609Z,1000.2
2017-03-04T05:25:36.068Z,1000.1
2017-03-04T05:26:38.526Z,1000.2
2017-03-04T05:27:40.973Z,1000.1
2017-03-04T05:28:43.438Z,1000.1
2017-03-04T05:29:46.702Z,1000.1
2017-03-04T05:30:48.643Z,1000.1
2017-03-04T05:31:51.599Z,1000.1
2017-03-04T05:32:54.046Z,1000.1
2017-03-04T05:37:04.462Z,1000.1
2017-03-04T05:38:06.922Z,1000
2017-03-04T05:39:09.368Z,1000
2017-03-04T05:40:12.333Z,1000
2017-03-04T05:41:14.779Z,1000
2017-03-04T05:42:17.513Z,1000
2017-03-04T05:43:19.969Z,999.9
2017-03-04T05:44:22.417Z,999.9
2017-03-04T05:45:24.874Z,999.9
2017-03-04T05:46:27.827Z,1000
2017-03-04T05:47:30.537Z,1000
2017-03-04T05:48:33.008Z,1000
2017-03-04T05:49:35.290Z,1000
2017-03-04T05:50:38.240Z,1000
2017-03-04T05:51:40.683Z,1000
2017-03-04T05:52:43.389Z,1000
2017-03-04T05:53:45.688Z,1000
2017-03-04T05:54:48.170Z,999.9
2017-03-04T05:55:51.119Z,1000
2017-03-04T05:56:53.566Z,1000
2017-03-04T05:57:56.613Z,1000
2017-03-04T05:58:58.581Z,1000
2017-03-04T06:00:01.047Z,1000
2017-03-04T06:01:04.005Z,999.9
2017-03-04T06:02:06.466Z,999.9
2017-03-04T06:03:09.518Z,999.9
2017-03-04T06:04:11.470Z,999.9
2017-03-04T06:05:14.432Z,999.9
2017-03-04T06:06:16.917Z,999.9
2017-03-04T06:07:19.388Z,999.9
2017-03-04T06:08:22.084Z,999.9
2017-03-04T06:09:24.534Z,999.9
2017-03-04T06:10:26.991Z,999.9
2017-03-04T06:11:29.776Z,999.9
2017-03-04T06:12:32.252Z,999.9
2017-03-04T06:13:34.955Z,999.9
2017-03-04T06:14:37.410Z,999.9
2017-03-04T06:15:39.857Z,999.9
2017-03-04T06:16:42.816Z,999.9
2017-03-04T06:17:45.259Z,999.9
2017-03-04T06:18:47.960Z,999.9
2017-03-04T06:19:50.409Z,999.9
2017-03-04T06:20:52.856Z,999.9
2017-03-04T06:21:55.825Z,1000
2017-03-04T06:24:00.964Z,1000.1
2017-03-04T06:25:03.406Z,1000
2017-03-04T06:26:05.765Z,1000
2017-03-04T06:27:08.581Z,1000
2017-03-04T06:28:11.022Z,1000.1
2017-03-04T06:29:13.721Z,1000
2017-03-04T06:30:16.204Z,1000
2017-03-04T06:31:18.647Z,1000
2017-03-04T06:32:21.599Z,1000
2017-03-04T06:33:24.054Z,1000
2017-03-04T06:35:29.664Z,1000.1
2017-03-04T06:36:31.632Z,1000.1
2017-03-04T06:37:34.598Z,1000
2017-03-04T06:38:37.060Z,1000
2017-03-04T06:39:39.513Z,1000.1
2017-03-04T06:40:42.252Z,1000.1
2017-03-04T06:41:44.700Z,1000.1
2017-03-04T06:42:47.164Z,1000.1
2017-03-04T06:43:50.115Z,1000.1
2017-03-04T06:44:52.602Z,1000.1
2017-03-04T06:45:55.300Z,1000.1
2017-03-04T06:46:57.743Z,1000
2017-03-04T06:49:02.617Z,1000.1
2017-03-04T06:50:05.573Z,1000.1
2017-03-04T06:51:08.282Z,1000
2017-03-04T06:52:10.739Z,1000
2017-03-04T06:53:13.185Z,1000
2017-03-04T06:54:15.635Z,1000.1
2017-03-04T06:55:18.584Z,1000
2017-03-04T06:56:21.283Z,1000
2017-03-04T06:57:23.753Z,999.9
2017-03-04T06:58:26.236Z,1000
2017-03-04T06:59:28.516Z,1000
2017-03-04T07:00:31.486Z,999.9
2017-03-04T07:01:34.213Z,999.9
2017-03-04T07:02:36.672Z,999.9
2017-03-04T07:03:39.127Z,1000
2017-03-04T07:04:41.574Z,999.9
2017-03-04T07:05:44.523Z,999.9
2017-03-04T07:06:47.256Z,999.9
2017-03-04T07:07:49.721Z,1000
2017-03-04T07:08:52.197Z,999.9
2017-03-04T07:09:54.648Z,1000
2017-03-04T07:10:57.090Z,1000
2017-03-04T07:12:00.322Z,1000
2017-03-04T07:13:02.296Z,999.9
2017-03-04T07:14:05.257Z,1000
2017-03-04T07:15:07.727Z,1000
2017-03-04T07:16:10.198Z,999.9
2017-03-04T07:17:12.939Z,1000
2017-03-04T07:18:15.411Z,1000
2017-03-04T07:19:18.376Z,999.9
2017-03-04T07:20:20.649Z,999.9
2017-03-04T07:21:23.604Z,999.9
2017-03-04T07:22:26.304Z,999.9
2017-03-04T07:24:31.007Z,1000
2017-03-04T07:25:33.968Z,999.9
2017-03-04T07:26:36.425Z,999.9
2017-03-04T07:27:39.123Z,999.9
2017-03-04T07:28:41.438Z,999.9
2017-03-04T07:29:44.411Z,999.9
2017-03-04T07:30:46.894Z,999.9
2017-03-04T07:31:49.344Z,999.9
2017-03-04T07:32:52.550Z,999.8
2017-03-04T07:33:54.517Z,999.9
2017-03-04T07:34:57.500Z,999.8
2017-03-04T07:35:59.960Z,999.9
2017-03-04T07:37:02.407Z,999.8
2017-03-04T07:38:05.683Z,999.8
2017-03-04T07:39:07.963Z,999.8
2017-03-04T07:40:10.433Z,999.8
2017-03-04T07:41:12.909Z,999.7
2017-03-04T07:42:15.857Z,999.8
2017-03-04T07:43:18.612Z,999.8
2017-03-04T07:44:21.060Z,999.8
2017-03-04T07:45:23.845Z,999.8
2017-03-04T07:46:26.292Z,999.8
2017-03-04T07:47:28.735Z,999.7
2017-03-04T07:48:32.009Z,999.8
2017-03-04T07:49:34.292Z,999.7
2017-03-04T07:50:36.755Z,999.7
2017-03-04T07:51:39.225Z,999.7
2017-03-04T07:52:42.178Z,999.7
2017-03-04T07:53:44.892Z,999.7
2017-03-04T07:54:47.339Z,999.7
2017-03-04T07:55:49.817Z,999.7
2017-03-04T07:56:52.776Z,999.6
2017-03-04T07:57:55.232Z,999.6
2017-03-04T07:58:57.934Z,999.6
2017-03-04T08:00:00.386Z,999.5
2017-03-04T08:01:03.335Z,999.6
2017-03-04T08:02:05.797Z,999.6
2017-03-04T08:03:08.265Z,999.6
2017-03-04T08:04:11.479Z,999.6
2017-03-04T08:05:13.932Z,999.6
2017-03-04T08:06:16.379Z,999.6
2017-03-04T08:07:18.829Z,999.6
2017-03-04T08:08:21.644Z,999.6
2017-03-04T08:09:24.341Z,999.6
2017-03-04T08:10:27.123Z,999.5
2017-03-04T08:11:29.404Z,999.5
2017-03-04T08:12:32.381Z,999.5
2017-03-04T08:13:34.831Z,999.4
2017-03-04T08:14:38.082Z,999.4
2017-03-04T08:15:40.029Z,999.5
2017-03-04T08:16:42.983Z,999.4
2017-03-04T08:17:45.446Z,999.4
2017-03-04T08:18:48.398Z,999.4
2017-03-04T08:19:51.148Z,999.4
2017-03-04T08:20:53.597Z,999.4
2017-03-04T08:21:56.047Z,999.4
2017-03-04T08:22:59.024Z,999.4
2017-03-04T08:24:01.497Z,999.4
2017-03-04T08:25:04.200Z,999.4
2017-03-04T08:26:06.650Z,999.4
2017-03-04T08:27:09.451Z,999.3
2017-03-04T08:28:11.906Z,999.3
2017-03-04T08:29:14.860Z,999.4
2017-03-04T08:30:17.572Z,999.3
2017-03-04T08:31:20.019Z,999.4
2017-03-04T08:32:22.468Z,999.4
2017-03-04T08:34:27.870Z,999.3
2017-03-04T08:35:30.969Z,999.4
2017-03-04T08:37:35.825Z,999.4
2017-03-04T08:38:38.788Z,999.4
2017-03-04T08:39:41.254Z,999.4
2017-03-04T08:40:44.506Z,999.3
2017-03-04T08:41:46.463Z,999.4
2017-03-04T08:42:49.467Z,999.3
2017-03-04T08:43:51.947Z,999.4
2017-03-04T08:44:54.442Z,999.4
2017-03-04T08:45:57.529Z,999.4
2017-03-04T08:47:00.005Z,999.4
2017-03-04T08:48:02.456Z,999.3
2017-03-04T08:49:05.417Z,999.2
2017-03-04T08:50:07.876Z,999.3
2017-03-04T08:51:11.077Z,999.3
2017-03-04T08:52:13.544Z,999.2
2017-03-04T08:53:16.042Z,999.2
2017-03-04T08:54:18.484Z,999.2
2017-03-04T08:55:21.442Z,999.2
2017-03-04T08:56:24.155Z,999.2
2017-03-04T08:57:26.607Z,999.2
2017-03-04T08:58:29.050Z,999.2
2017-03-04T08:59:31.837Z,999.2
2017-03-04T09:00:34.787Z,999.2
2017-03-04T09:01:37.542Z,999.2
2017-03-04T09:02:40.004Z,999.3
2017-03-04T09:03:42.467Z,999.2
2017-03-04T09:04:45.418Z,999.2
2017-03-04T09:05:47.709Z,999.3
2017-03-04T09:06:50.937Z,999.3
2017-03-04T09:07:53.406Z,999.2
2017-03-04T09:08:55.856Z,999.2
2017-03-04T09:09:58.810Z,999.2
2017-03-04T09:11:01.263Z,999.2
2017-03-04T09:13:06.831Z,999.2
2017-03-04T09:14:09.289Z,999.1
2017-03-04T09:15:11.733Z,999.1
2017-03-04T09:16:14.692Z,999.1
2017-03-04T09:17:17.149Z,999.1
2017-03-04T09:19:22.769Z,999.1
2017-03-04T09:20:25.215Z,999.1
2017-03-04T09:21:28.024Z,999.2
2017-03-04T09:22:30.476Z,999.1
2017-03-04T09:23:33.435Z,999.1
2017-03-04T09:24:36.138Z,999.2
2017-03-04T09:25:38.604Z,999.1
2017-03-04T09:26:41.397Z,999.1
2017-03-04T09:27:43.847Z,999.1
2017-03-04T09:28:46.803Z,999.1
2017-03-04T09:29:49.568Z,999.1
2017-03-04T09:30:52.014Z,999
2017-03-04T09:31:54.471Z,999.1
2017-03-04T09:32:57.443Z,999.1
2017-03-04T09:33:59.904Z,999.1
2017-03-04T09:35:02.617Z,999.1
2017-03-04T09:36:05.114Z,999.1
2017-03-04T09:37:08.082Z,999.1
2017-03-04T09:38:10.565Z,999.1
2017-03-04T09:40:16.196Z,999.1
2017-03-04T09:41:18.476Z,999
2017-03-04T09:42:21.432Z,999
2017-03-04T09:43:23.884Z,999
2017-03-04T09:44:26.339Z,999
2017-03-04T09:45:29.423Z,998.9
2017-03-04T09:46:31.703Z,998.9
2017-03-04T09:47:34.653Z,998.9
2017-03-04T09:48:37.101Z,998.9
2017-03-04T09:49:40.053Z,998.9
2017-03-04T09:51:45.163Z,998.9
2017-03-04T09:52:47.642Z,998.9
2017-03-04T09:53:50.592Z,998.9
2017-03-04T09:54:53.077Z,998.8
2017-03-04T09:55:56.030Z,998.9
2017-03-04T09:56:58.754Z,998.8
2017-03-04T09:58:01.240Z,998.8
2017-03-04T09:59:03.695Z,998.8
2017-03-04T10:00:06.662Z,998.8
2017-03-04T10:01:08.969Z,998.7
2017-03-04T10:02:12.178Z,998.7
2017-03-04T10:03:14.621Z,998.7
2017-03-04T10:04:17.075Z,998.7
2017-03-04T10:05:19.551Z,998.7
2017-03-04T10:06:22.507Z,998.7
2017-03-04T10:07:25.267Z,998.6
2017-03-04T10:08:27.718Z,998.6
2017-03-04T10:09:30.503Z,998.6
2017-03-04T10:11:35.710Z,998.5
2017-03-04T10:12:38.424Z,998.5
2017-03-04T10:13:40.875Z,998.5
2017-03-04T10:14:43.874Z,998.5
2017-03-04T10:15:46.358Z,998.5
2017-03-04T10:16:48.842Z,998.5
2017-03-04T10:17:52.047Z,998.5
2017-03-04T10:18:54.332Z,998.4
2017-03-04T10:19:56.812Z,998.4
2017-03-04T10:20:59.776Z,998.4
2017-03-04T10:22:02.568Z,998.3
2017-03-04T10:23:05.281Z,998.4
2017-03-04T10:24:07.727Z,998.3
2017-03-04T10:25:10.171Z,998.4
2017-03-04T10:26:13.133Z,998.3
2017-03-04T10:27:15.583Z,998.3
2017-03-04T10:28:18.800Z,998.2
2017-03-04T10:29:20.757Z,998.3
2017-03-04T10:30:23.708Z,998.3
2017-03-04T10:31:26.171Z,998.3
2017-03-04T10:32:29.141Z,998.2
2017-03-04T10:33:31.728Z,998.2
2017-03-04T10:34:34.178Z,998.2
2017-03-04T10:35:37.159Z,998.2
2017-03-04T10:36:39.603Z,998.2
2017-03-04T10:37:42.561Z,998.1
2017-03-04T10:38:45.258Z,998.1
2017-03-04T10:39:47.710Z,998.1
2017-03-04T10:40:50.169Z,998.1
2017-03-04T10:41:53.157Z,998.1
2017-03-04T10:42:55.611Z,998.1
2017-03-04T10:43:58.863Z,998.1
2017-03-04T10:45:00.825Z,998
2017-03-04T10:46:03.780Z,997.8
2017-03-04T10:47:06.244Z,998
2017-03-04T10:48:09.194Z,997.8
2017-03-04T10:49:11.729Z,998
2017-03-04T10:50:14.182Z,997.8
2017-03-04T10:51:17.130Z,997.8
2017-03-04T10:52:19.579Z,997.8
2017-03-04T10:53:22.530Z,997.8
2017-03-04T10:54:25.227Z,997.7
2017-03-04T10:55:27.703Z,997.7
2017-03-04T10:56:30.188Z,997.7
2017-03-04T10:57:33.154Z,997.7
2017-03-04T10:58:35.595Z,997.7
2017-03-04T10:59:38.850Z,997.6
2017-03-04T11:00:40.794Z,997.6
2017-03-04T11:01:43.763Z,997.6
2017-03-04T11:02:46.241Z,997.6
2017-03-04T11:03:49.206Z,997.5
2017-03-04T11:04:51.956Z,997.5
2017-03-04T11:05:54.404Z,997.5
2017-03-04T11:06:56.862Z,997.5
2017-03-04T11:09:02.217Z,997.4
2017-03-04T11:10:05.428Z,997.4
2017-03-04T11:11:07.721Z,997.4
2017-03-04T11:12:10.685Z,997.4
2017-03-04T11:13:13.143Z,997.3
2017-03-04T11:14:15.935Z,997.4
2017-03-04T11:15:18.635Z,997.3
2017-03-04T11:16:21.081Z,997.4
2017-03-04T11:17:24.049Z,997.4
2017-03-04T11:18:26.497Z,997.3
2017-03-04T11:19:29.287Z,997.3
2017-03-04T11:20:31.984Z,997.2
2017-03-04T11:21:34.291Z,997.2
2017-03-04T11:22:37.091Z,997.1
2017-03-04T11:23:40.061Z,997.1
2017-03-04T11:24:42.502Z,997.1
2017-03-04T11:25:45.706Z,997.1
2017-03-04T11:26:47.996Z,997.1
2017-03-04T11:27:50.443Z,997.1
2017-03-04T11:28:53.408Z,997
2017-03-04T11:29:56.221Z,997
2017-03-04T11:30:58.921Z,997
2017-03-04T11:33:03.778Z,997
2017-03-04T11:34:06.756Z,997
2017-03-04T11:35:09.230Z,997
2017-03-04T11:36:12.439Z,997
2017-03-04T11:37:14.900Z,996.9
2017-03-04T11:38:17.353Z,996.9
2017-03-04T11:39:20.306Z,996.9
2017-03-04T11:40:22.752Z,996.8
2017-03-04T11:41:25.970Z,996.8
2017-03-04T11:42:28.417Z,996.9
2017-03-04T11:43:30.877Z,996.9
2017-03-04T11:44:33.349Z,996.9
2017-03-04T11:45:36.297Z,996.8
2017-03-04T11:46:39.436Z,996.8
2017-03-04T11:47:41.885Z,996.8
2017-03-04T11:48:44.338Z,996.7
2017-03-04T11:49:46.788Z,996.7
2017-03-04T11:50:49.760Z,996.7
2017-03-04T11:51:52.472Z,996.7
2017-03-04T11:52:54.922Z,996.7
2017-03-04T11:53:57.891Z,996.6
2017-03-04T11:56:03.243Z,996.6
2017-03-04T11:57:05.937Z,996.6
2017-03-04T11:58:08.387Z,996.6
2017-03-04T11:59:11.358Z,996.6
2017-03-04T12:00:13.821Z,996.6
2017-03-04T12:01:16.607Z,996.5
2017-03-04T12:02:19.815Z,996.5
2017-03-04T12:03:22.259Z,996.5
2017-03-04T12:04:24.709Z,996.6
2017-03-04T12:05:27.180Z,996.5
2017-03-04T12:06:30.160Z,996.5
2017-03-04T12:07:32.845Z,996.5
2017-03-04T12:08:35.346Z,996.4
2017-03-04T12:09:38.299Z,996.4
2017-03-04T12:10:40.769Z,996.4
2017-03-04T12:11:43.740Z,996.4
2017-03-04T12:12:46.452Z,996.3
2017-03-04T12:13:48.904Z,996.3
2017-03-04T12:14:51.854Z,996.3
2017-03-04T12:15:54.297Z,996.2
2017-03-04T12:16:57.266Z,996.2
2017-03-04T12:18:00.003Z,996.3
2017-03-04T12:19:02.451Z,996.3
2017-03-04T12:20:05.424Z,996.2
2017-03-04T12:21:07.872Z,996.3
2017-03-04T12:22:10.827Z,996.2
2017-03-04T12:23:13.590Z,996.2
2017-03-04T12:25:18.444Z,996.1
2017-03-04T12:26:21.392Z,996.1
2017-03-04T12:27:24.241Z,996.1
2017-03-04T12:28:27.114Z,996
2017-03-04T12:29:29.645Z,996
2017-03-04T12:30:32.113Z,996
2017-03-04T12:31:35.101Z,995.9
2017-03-04T12:32:37.569Z,995.9
2017-03-04T12:33:40.771Z,996
2017-03-04T12:35:45.642Z,995.9
2017-03-04T12:37:51.013Z,995.9
2017-03-04T12:38:54.214Z,995.9
2017-03-04T12:39:56.661Z,995.9
2017-03-04T12:40:59.136Z,995.8
2017-03-04T12:42:02.084Z,995.8
2017-03-04T12:43:04.546Z,995.8
2017-03-04T12:44:07.748Z,995.8
2017-03-04T12:45:10.195Z,995.8
2017-03-04T12:46:12.670Z,995.8
2017-03-04T12:47:15.635Z,995.7
2017-03-04T12:48:18.080Z,995.8
2017-03-04T12:49:21.132Z,995.7
2017-03-04T12:50:23.413Z,995.8
2017-03-04T12:51:26.361Z,995.7
2017-03-04T12:52:29.142Z,995.7
2017-03-04T12:53:31.600Z,995.7
2017-03-04T12:54:34.851Z,995.7
2017-03-04T12:55:37.297Z,995.7
2017-03-04T12:56:39.780Z,995.6
2017-03-04T12:57:42.744Z,995.6
2017-03-04T12:58:45.194Z,995.6
2017-03-04T12:59:48.461Z,995.7
2017-03-04T13:00:50.933Z,995.6
2017-03-04T13:02:56.301Z,995.5
2017-03-04T13:03:59.080Z,995.6
2017-03-04T13:05:01.784Z,995.6
2017-03-04T13:06:04.267Z,995.6
2017-03-04T13:07:07.050Z,995.6
2017-03-04T13:08:10.006Z,995.5
2017-03-04T13:09:12.449Z,995.5
2017-03-04T13:10:15.668Z,995.5
2017-03-04T13:11:18.116Z,995.5
2017-03-04T13:12:20.573Z,995.5
2017-03-04T13:13:23.544Z,995.4
2017-03-04T13:14:26.173Z,995.5
2017-03-04T13:15:28.871Z,995.5
2017-03-04T13:16:31.340Z,995.4
2017-03-04T13:17:34.296Z,995.5
2017-03-04T13:18:36.762Z,995.4
2017-03-04T13:19:39.563Z,995.4
2017-03-04T13:20:42.627Z,995.4
2017-03-04T13:21:45.070Z,995.4
2017-03-04T13:22:48.026Z,995.4
2017-03-04T13:23:50.499Z,995.4
2017-03-04T13:24:53.448Z,995.3
2017-03-04T13:25:56.211Z,995.4
2017-03-04T13:26:58.654Z,995.3
2017-03-04T13:28:01.620Z,995.3
2017-03-04T13:29:04.069Z,995.3
2017-03-04T13:30:07.032Z,995.3
2017-03-04T13:31:09.913Z,995.3
2017-03-04T13:32:12.358Z,995.2
2017-03-04T13:34:17.717Z,995.3
2017-03-04T13:35:20.678Z,995.2
2017-03-04T13:36:23.376Z,995.3
2017-03-04T13:37:25.838Z,995.2
2017-03-04T13:38:28.650Z,995.1
2017-03-04T13:39:31.605Z,995.2
2017-03-04T13:40:34.066Z,995.1
2017-03-04T13:41:37.273Z,995.2
2017-03-04T13:42:39.725Z,995.1
2017-03-04T13:43:42.173Z,995.1
2017-03-04T13:44:44.958Z,995.1
2017-03-04T13:45:47.936Z,995.1
2017-03-04T13:46:50.634Z,995.1
2017-03-04T13:47:53.078Z,995.1
2017-03-04T13:48:56.055Z,995.1
2017-03-04T13:49:58.502Z,995.1
2017-03-04T13:51:01.479Z,995.1